Time;durP1;ratioP1;P1;durP2;ratioP2;P2;SDS_P1;SDS_P2;PMS_P1;PMS_P2;Temp;Humidity;BMP_temperature;BMP_pressure;BME280_temperature;BME280_humidity;BME280_pressure;Samples;Min_cycle;Max_cycle;Signal;HPM_P1;HPM_P2
2021/07/25 00:00:44;;;;;;;1.30;1.20;;;;;;;18.48;68.26;99500.59;5064189;28;20032;-74
2021/07/25 00:03:36;;;;;;;1.92;1.83;;;;;;;18.52;68.67;99506.28;5021098;28;20032;-74
2021/07/25 00:06:01;;;;;;;1.80;1.73;;;;;;;18.59;68.64;99512.06;5044221;28;20021;-74
2021/07/25 00:08:27;;;;;;;2.28;2.08;;;;;;;18.53;68.71;99505.94;5057383;28;20029;-74
2021/07/25 00:10:54;;;;;;;2.10;2.00;;;;;;;18.50;68.92;99498.31;5059619;28;20032;-73
2021/07/25 00:13:19;;;;;;;2.40;2.30;;;;;;;18.58;68.54;99505.69;5062077;28;20530;-74
2021/07/25 00:15:45;;;;;;;1.88;1.77;;;;;;;18.56;68.81;99508.00;5047916;28;20075;-74
2021/07/25 00:18:11;;;;;;;3.13;2.92;;;;;;;18.64;68.81;99509.84;5024363;28;20044;-75
2021/07/25 00:20:37;;;;;;;1.70;1.60;;;;;;;18.66;68.60;99513.13;5063401;28;20025;-74
2021/07/25 00:23:02;;;;;;;1.77;1.77;;;;;;;18.74;69.46;99519.69;5027484;28;20100;-74
2021/07/25 00:25:28;;;;;;;2.33;2.22;;;;;;;18.76;68.61;99511.03;5019291;28;20041;-73
2021/07/25 00:27:55;;;;;;;2.45;2.35;;;;;;;18.80;68.85;99506.44;5054940;28;20109;-75
2021/07/25 00:30:25;;;;;;;3.65;3.45;;;;;;;18.92;69.36;99517.56;5037729;28;20036;-74
2021/07/25 00:32:52;;;;;;;2.90;2.72;;;;;;;18.97;69.16;99522.88;5071590;28;20463;-75
2021/07/25 00:35:20;;;;;;;2.70;2.60;;;;;;;18.90;68.94;99499.69;5057718;28;20043;-77
2021/07/25 00:37:49;;;;;;;2.80;2.60;;;;;;;19.00;68.76;99521.38;5050978;28;20053;-76
2021/07/25 00:40:29;;;;;;;2.53;2.33;;;;;;;18.93;68.99;99505.31;5044136;28;20037;-77
2021/07/25 00:43:29;;;;;;;2.92;2.75;;;;;;;19.05;68.93;99525.88;5062102;28;20024;-77
2021/07/25 00:46:51;;;;;;;;;;;;;;;;;;;;;
2021/07/25 00:49:29;;;;;;;6.13;2.95;;;;;;;18.84;68.87;99502.63;5050979;28;20088;-75
2021/07/25 00:52:16;;;;;;;;;;;;;;;;;;;;;
2021/07/25 00:55:14;;;;;;;;;;;;;;;;;;;;;
2021/07/25 00:57:56;;;;;;;;;;;;;;;;;;;;;
2021/07/25 01:04:08;;;;;;;2.95;2.85;;;;;;;18.88;68.45;99502.81;5053166;28;20043;-75
2021/07/25 01:06:52;;;;;;;2.50;2.40;;;;;;;18.87;68.96;99501.16;5054926;28;20068;-76
2021/07/25 01:09:40;;;;;;;4.15;3.58;;;;;;;18.79;69.05;99494.56;5054500;28;20032;-74
2021/07/25 01:12:16;;;;;;;2.72;2.63;;;;;;;18.77;69.18;99496.06;5054448;28;20471;-72
2021/07/25 01:14:47;;;;;;;3.00;2.85;;;;;;;18.81;69.24;99502.53;5050497;28;20051;-75
2021/07/25 01:17:28;;;;;;;2.47;2.38;;;;;;;18.78;68.28;99486.59;5052813;28;20044;-74
2021/07/25 01:19:58;;;;;;;1.70;1.70;;;;;;;18.58;68.97;99468.91;5068528;28;20047;-74
2021/07/25 01:22:37;;;;;;;2.50;2.40;;;;;;;18.76;68.64;99494.44;5059420;28;20029;-75
2021/07/25 01:25:30;;;;;;;2.55;2.45;;;;;;;18.83;68.77;99505.75;5039696;28;20067;-73
2021/07/25 01:31:46;;;;;;;3.00;2.90;;;;;;;18.84;68.45;99504.59;5041817;28;20029;-74
2021/07/25 01:35:16;;;;;;;;;;;;;;;;;;;;;
2021/07/25 01:38:02;;;;;;;1.45;1.40;;;;;;;18.74;68.20;99497.53;5062458;28;20044;-74
2021/07/25 01:41:02;;;;;;;0.95;0.95;;;;;;;18.79;68.57;99510.34;5039307;28;20071;-74
2021/07/25 01:43:28;;;;;;;1.60;1.55;;;;;;;18.78;68.68;99508.75;5049871;28;20127;-73
2021/07/25 01:45:54;;;;;;;1.95;1.88;;;;;;;18.74;68.70;99507.81;5040854;28;20026;-74
2021/07/25 01:48:20;;;;;;;2.05;1.95;;;;;;;18.69;68.53;99499.72;5040652;28;20078;-75
2021/07/25 01:50:45;;;;;;;3.45;2.00;;;;;;;18.75;68.84;99510.25;5034394;28;20364;-74
2021/07/25 01:53:38;;;;;;;2.05;1.95;;;;;;;18.80;68.39;99512.78;5035386;28;20421;-75
2021/07/25 01:56:20;;;;;;;5.45;2.78;;;;;;;18.80;68.85;99510.00;5066513;28;20052;-76
2021/07/25 01:58:47;;;;;;;2.45;2.35;;;;;;;18.78;68.33;99503.22;5064055;28;20021;-74
2021/07/25 02:01:52;;;;;;;2.50;2.40;;;;;;;18.84;68.25;99502.63;5047887;28;20041;-75
2021/07/25 02:04:37;;;;;;;1.60;1.60;;;;;;;18.86;68.02;99510.63;5478642;23;20059;-75
2021/07/25 02:07:04;;;;;;;1.52;1.52;;;;;;;18.89;68.33;99507.16;5071674;28;20017;-76
2021/07/25 02:09:33;;;;;;;2.30;2.20;;;;;;;18.90;68.54;99506.03;5056625;28;20028;-75
2021/07/25 02:11:58;;;;;;;4.28;3.97;;;;;;;18.92;68.56;99508.44;5056206;28;20037;-75
2021/07/25 02:14:24;;;;;;;4.03;3.78;;;;;;;18.92;68.90;99503.69;5068707;28;20467;-75
2021/07/25 02:16:49;;;;;;;3.78;3.55;;;;;;;18.93;68.39;99515.59;5068986;28;20114;-73
2021/07/25 02:19:15;;;;;;;3.08;2.88;;;;;;;18.90;68.43;99511.56;5080151;28;20060;-74
2021/07/25 02:21:40;;;;;;;2.05;1.92;;;;;;;18.96;68.68;99515.72;5050711;28;20099;-72
2021/07/25 02:24:06;;;;;;;2.08;1.88;;;;;;;19.00;68.19;99516.66;5070733;28;20051;-73
2021/07/25 02:26:31;;;;;;;2.85;2.75;;;;;;;19.06;67.93;99510.91;5054596;28;20669;-73
2021/07/25 02:28:57;;;;;;;3.30;3.20;;;;;;;19.06;68.05;99513.66;5062131;28;20115;-73
2021/07/25 02:31:22;;;;;;;2.58;2.47;;;;;;;19.07;68.46;99510.53;5059065;28;20032;-73
2021/07/25 02:33:48;;;;;;;2.25;2.15;;;;;;;19.06;68.36;99508.13;5047021;28;20024;-74
2021/07/25 02:36:14;;;;;;;2.38;2.28;;;;;;;19.09;68.07;99508.22;5043338;28;21507;-76
2021/07/25 02:39:18;;;;;;;5.75;3.20;;;;;;;18.99;68.56;99486.53;5044074;28;20047;-75
2021/07/25 02:41:46;;;;;;;3.35;3.15;;;;;;;19.13;68.35;99505.59;5037624;28;20040;-73
2021/07/25 02:58:36;;;;;;;4.90;4.32;;;;;;;19.21;67.66;99485.25;5080077;28;20035;-75
2021/07/25 03:01:52;;;;;;;;;;;;;;;;;;;;;
2021/07/25 03:11:32;;;;;;;5.25;4.85;;;;;;;18.82;68.43;99462.56;5023506;28;20041;-74
2021/07/25 03:14:47;;;;;;;4.88;4.55;;;;;;;19.02;67.90;99492.16;5019977;28;20098;-74
2021/07/25 03:20:42;;;;;;;6.15;5.00;;;;;;;18.93;68.49;99472.09;4945473;28;20051;-75
2021/07/25 03:26:53;;;;;;;5.50;5.10;;;;;;;18.95;68.66;99480.88;4956276;28;20061;-75
2021/07/25 03:32:43;;;;;;;5.70;5.30;;;;;;;18.89;68.74;99484.22;4931289;29;20083;-75
2021/07/25 03:35:09;;;;;;;5.40;5.07;;;;;;;18.82;68.68;99481.97;4950617;28;20433;-75
2021/07/25 03:37:39;;;;;;;5.88;5.38;;;;;;;18.80;68.86;99489.81;4970496;28;20067;-75
2021/07/25 03:40:06;;;;;;;5.72;5.32;;;;;;;18.78;68.58;99489.38;5044400;28;20036;-75
2021/07/25 03:42:31;;;;;;;5.75;5.45;;;;;;;18.76;68.43;99484.19;5022321;28;20077;-75
2021/07/25 03:44:57;;;;;;;4.57;4.28;;;;;;;18.73;68.99;99484.03;5063807;28;20071;-75
2021/07/25 03:47:22;;;;;;;3.75;3.55;;;;;;;18.72;68.97;99483.25;5017984;28;20029;-74
2021/07/25 03:49:48;;;;;;;4.38;3.42;;;;;;;18.70;68.86;99484.72;5012774;28;20071;-75
2021/07/25 03:52:13;;;;;;;5.60;5.07;;;;;;;18.73;68.99;99484.03;5060529;28;20029;-75
2021/07/25 03:54:42;;;;;;;5.80;5.50;;;;;;;18.79;68.92;99482.66;5045290;28;20025;-75
2021/07/25 03:57:12;;;;;;;4.70;4.40;;;;;;;18.79;68.73;99480.72;5057673;28;20025;-76
2021/07/25 03:59:38;;;;;;;4.70;4.35;;;;;;;18.82;68.64;99495.81;5041366;28;20029;-76
2021/07/25 04:02:04;;;;;;;7.78;5.10;;;;;;;18.80;68.54;99501.69;5039564;28;20079;-75
2021/07/25 04:04:30;;;;;;;6.20;5.90;;;;;;;18.83;69.10;99500.22;5035735;28;20107;-75
2021/07/25 04:06:56;;;;;;;5.40;5.10;;;;;;;18.83;68.89;99505.75;5044246;28;20100;-75
2021/07/25 04:09:21;;;;;;;6.00;5.60;;;;;;;18.80;68.88;99495.34;5065070;28;20483;-74
2021/07/25 04:11:55;;;;;;;8.07;7.47;;;;;;;18.84;68.81;99496.28;5038435;28;20031;-75
2021/07/25 04:14:21;;;;;;;7.03;6.45;;;;;;;18.88;69.07;99508.34;5060722;28;20022;-74
2021/07/25 04:16:46;;;;;;;7.63;7.03;;;;;;;18.92;68.58;99505.66;5051650;28;20017;-73
2021/07/25 04:19:11;;;;;;;7.78;7.20;;;;;;;18.93;68.94;99504.53;5051045;28;20039;-75
2021/07/25 04:21:37;;;;;;;6.13;5.72;;;;;;;18.97;68.68;99503.50;5050839;28;20040;-74
2021/07/25 04:24:25;;;;;;;6.05;5.45;;;;;;;18.97;68.90;99499.91;5039922;28;20043;-75
2021/07/25 04:27:32;;;;;;;7.05;6.55;;;;;;;19.07;68.40;99509.72;5053897;28;20029;-76
2021/07/25 04:30:20;;;;;;;7.00;6.38;;;;;;;19.08;68.75;99503.03;5002706;28;20117;-75
2021/07/25 04:32:48;;;;;;;6.90;6.38;;;;;;;18.96;69.19;99488.00;4980562;28;20046;-73
2021/07/25 04:35:17;;;;;;;5.88;5.50;;;;;;;18.99;69.07;99503.94;4983764;28;20034;-73
2021/07/25 04:37:54;;;;;;;6.35;5.82;;;;;;;19.06;69.21;99506.16;5002884;28;20043;-74
2021/07/25 04:40:27;;;;;;;7.75;6.55;;;;;;;19.06;69.10;99508.91;5073919;28;20142;-74
2021/07/25 04:43:15;;;;;;;6.85;6.45;;;;;;;19.11;68.63;99510.66;5072060;28;20037;-74
2021/07/25 04:45:47;;;;;;;10.55;8.65;;;;;;;19.15;68.93;99517.13;5043306;28;20071;-75
2021/07/25 04:48:41;;;;;;;10.05;7.60;;;;;;;19.14;68.74;99508.00;5069573;28;20036;-75
2021/07/25 04:51:09;;;;;;;7.78;6.30;;;;;;;19.15;68.97;99511.56;5054226;28;20096;-75
2021/07/25 04:53:41;;;;;;;6.57;6.03;;;;;;;19.11;69.00;99505.09;5079931;28;20017;-75
2021/07/25 04:56:12;;;;;;;7.30;6.68;;;;;;;19.19;68.83;99512.50;5042367;28;20036;-74
2021/07/25 04:58:43;;;;;;;7.65;7.00;;;;;;;19.16;68.70;99508.47;5067000;28;20030;-74
2021/07/25 05:01:14;;;;;;;7.65;6.93;;;;;;;19.21;68.90;99498.31;5061592;28;20032;-74
2021/07/25 05:03:40;;;;;;;8.30;7.55;;;;;;;19.27;68.39;99503.25;5053642;28;20082;-75
2021/07/25 05:06:31;;;;;;;8.95;8.05;;;;;;;19.39;68.72;99515.50;5066056;28;20030;-75
2021/07/25 05:08:59;;;;;;;8.98;8.18;;;;;;;19.38;68.36;99522.19;5067800;28;20044;-74
2021/07/25 05:11:39;;;;;;;6.63;6.07;;;;;;;19.40;68.47;99525.44;5062051;28;20035;-74
2021/07/25 05:14:51;;;;;;;10.02;7.53;;;;;;;19.43;68.66;99521.97;5051686;28;20040;-76
2021/07/25 05:17:57;;;;;;;8.93;6.82;;;;;;;19.38;68.32;99525.78;5067152;28;21111;-74
2021/07/25 05:21:11;;;;;;;9.52;6.50;;;;;;;19.39;67.92;99521.03;5077321;28;20117;-75
2021/07/25 05:28:30;;;;;;;13.02;7.07;;;;;;;19.51;67.94;99518.28;5077169;28;20039;-76
2021/07/25 05:30:56;;;;;;;8.60;7.80;;;;;;;19.47;67.87;99522.88;5066668;28;20033;-77
2021/07/25 05:33:28;;;;;;;5.70;5.30;;;;;;;19.43;68.04;99516.41;5074009;28;20024;-75
2021/07/25 05:35:54;;;;;;;6.18;5.40;;;;;;;19.41;68.02;99521.53;5040510;28;20027;-76
2021/07/25 05:38:29;;;;;;;11.10;7.15;;;;;;;19.53;68.41;99527.84;5055869;28;20032;-75
2021/07/25 05:41:30;;;;;;;16.42;7.38;;;;;;;19.61;67.98;99523.34;5066628;28;20074;-75
2021/07/25 05:44:05;;;;;;;7.15;6.55;;;;;;;19.66;68.28;99527.84;5076566;28;20035;-76
2021/07/25 05:47:20;;;;;;;8.13;6.68;;;;;;;19.73;68.26;99524.44;5077390;28;20471;-76
2021/07/25 05:50:15;;;;;;;10.98;7.30;;;;;;;19.79;67.77;99520.34;5073564;28;20086;-76
2021/07/25 05:56:02;;;;;;;11.73;9.52;;;;;;;19.84;67.85;99525.63;5070772;28;20047;-75
2021/07/25 05:58:53;;;;;;;8.85;7.97;;;;;;;19.93;67.04;99514.38;5036855;28;20478;-76
2021/07/25 06:01:40;;;;;;;11.48;7.03;;;;;;;20.01;67.06;99522.56;5051143;28;20029;-75
2021/07/25 06:04:29;;;;;;;6.85;6.25;;;;;;;20.14;66.84;99534.44;5065836;28;20040;-75
2021/07/25 06:18:25;;;;;;;7.18;6.72;;;;;;;20.45;66.14;99532.13;5012066;28;20483;-76
2021/07/25 06:35:05;;;;;;;12.25;9.45;;;;;;;20.65;65.89;99531.09;4917346;29;20047;-77
2021/07/25 06:40:55;;;;;;;8.48;7.60;;;;;;;20.48;65.45;99511.97;4922803;29;20074;-78
2021/07/25 06:43:22;;;;;;;7.88;7.15;;;;;;;20.58;65.46;99536.44;4928571;29;20076;-77
2021/07/25 06:45:48;;;;;;;18.67;9.43;;;;;;;20.53;65.63;99522.81;5006845;28;20044;-76
2021/07/25 06:48:35;;;;;;;11.20;9.95;;;;;;;20.63;65.67;99533.41;4997383;28;20065;-77
2021/07/25 06:51:07;;;;;;;8.15;7.35;;;;;;;20.64;65.32;99532.25;4984242;28;20042;-77
2021/07/25 06:53:37;;;;;;;8.20;7.60;;;;;;;20.73;65.78;99537.66;5020152;28;20032;-77
2021/07/25 07:08:38;;;;;;;6.20;5.80;;;;;;;21.36;64.00;99542.44;5034671;28;20076;-76
2021/07/25 07:11:16;;;;;;;;;;;;;;;;;;;;;
2021/07/25 07:14:20;;;;;;;5.05;4.75;;;;;;;21.55;63.88;99543.69;5027998;28;20103;-78
2021/07/25 07:18:00;;;;;;;8.07;6.07;;;;;;;21.51;63.15;99548.34;5018923;28;20025;-77
2021/07/25 07:31:01;;;;;;;7.88;7.20;;;;;;;21.71;62.63;99552.00;4945862;28;20042;-77
2021/07/25 07:33:48;;;;;;;5.85;5.45;;;;;;;21.84;62.71;99561.84;4922148;29;20096;-77
2021/07/25 07:47:53;;;;;;;8.20;7.60;;;;;;;21.89;61.66;99574.66;4863659;29;20029;-76
2021/07/25 08:02:05;;;;;;;4.28;3.90;;;;;;;21.57;61.52;99586.66;4809295;29;20093;-77
2021/07/25 08:04:43;;;;;;;3.88;3.67;;;;;;;21.55;62.14;99579.84;4849437;29;20052;-77
2021/07/25 08:21:26;;;;;;;3.35;3.25;;;;;;;21.93;61.51;99581.13;4903689;29;20048;-77
2021/07/25 08:28:36;;;;;;;;;;;;;;;;;;;;;
2021/07/25 08:31:02;;;;;;;3.17;2.95;;;;;;;21.72;61.00;99604.50;4914370;28;20148;-76
2021/07/25 08:33:31;;;;;;;5.05;4.70;;;;;;;21.69;60.91;99616.34;4961950;28;20054;-77
2021/07/25 08:43:51;;;;;;;3.03;2.92;;;;;;;21.45;61.52;99626.50;4926139;29;20077;-78
2021/07/25 08:46:29;;;;;;;3.38;3.20;;;;;;;21.27;61.51;99605.75;4924332;28;20119;-76
2021/07/25 08:49:21;;;;;;;3.75;3.55;;;;;;;21.23;61.94;99604.84;4964684;28;20050;-79
2021/07/25 08:52:40;;;;;;;3.20;3.00;;;;;;;21.47;61.85;99631.69;4955130;28;20045;-80
2021/07/25 08:59:30;;;;;;;;;;;;;;;;;;;;;
2021/07/25 09:03:02;;;;;;;3.33;3.13;;;;;;;21.94;61.77;99627.28;4958943;28;20114;-80
2021/07/25 09:05:29;;;;;;;2.72;2.63;;;;;;;22.22;61.25;99632.66;4964688;28;21922;-78
2021/07/25 09:07:57;;;;;;;3.13;2.92;;;;;;;22.36;60.72;99618.28;4955304;28;20018;-77
2021/07/25 09:10:23;;;;;;;2.28;2.17;;;;;;;22.74;60.48;99638.94;4999870;28;20054;-78
2021/07/25 09:12:50;;;;;;;1.75;1.65;;;;;;;22.94;60.37;99636.97;4994908;28;20033;-74
2021/07/25 09:15:29;;;;;;;3.00;2.67;;;;;;;23.12;59.72;99640.09;5011410;28;20033;-75
2021/07/25 09:17:56;;;;;;;2.75;2.60;;;;;;;23.21;59.24;99639.06;4993788;28;20030;-73
2021/07/25 09:20:53;;;;;;;2.97;2.78;;;;;;;23.29;59.13;99638.00;4997436;28;20057;-75
2021/07/25 09:23:21;;;;;;;3.88;3.63;;;;;;;23.08;58.68;99628.03;5007132;28;20393;-74
2021/07/25 09:25:59;;;;;;;3.70;3.40;;;;;;;22.93;59.02;99623.41;5006560;28;20025;-74
2021/07/25 09:28:36;;;;;;;2.50;2.40;;;;;;;22.82;58.95;99626.78;4999551;28;20117;-76
2021/07/25 09:31:29;;;;;;;3.70;3.47;;;;;;;22.94;59.14;99633.34;4968935;28;20096;-76
2021/07/25 09:33:55;;;;;;;2.83;2.63;;;;;;;22.92;59.12;99618.97;5006942;28;20040;-77
2021/07/25 09:36:22;;;;;;;2.50;2.40;;;;;;;23.05;58.84;99626.00;4986737;28;20450;-78
2021/07/25 09:38:54;;;;;;;4.40;4.10;;;;;;;23.13;58.53;99629.75;4993738;28;20105;-74
2021/07/25 09:41:26;;;;;;;3.25;3.05;;;;;;;23.18;58.38;99633.03;5018958;28;20030;-74
2021/07/25 09:44:08;;;;;;;2.50;2.40;;;;;;;23.24;58.12;99625.16;4995895;28;20030;-75
2021/07/25 09:46:42;;;;;;;2.33;2.22;;;;;;;23.24;58.00;99624.38;4994024;28;20029;-74
2021/07/25 09:49:08;;;;;;;6.28;3.50;;;;;;;23.24;57.65;99627.97;4999949;28;20125;-77
2021/07/25 09:51:33;;;;;;;3.05;2.85;;;;;;;23.22;57.98;99626.72;4988548;28;20429;-77
2021/07/25 09:54:02;;;;;;;2.75;2.53;;;;;;;23.36;57.87;99638.13;4993527;28;20075;-75
2021/07/25 09:56:28;;;;;;;1.95;1.85;;;;;;;23.45;57.77;99641.50;4996028;28;20022;-74
2021/07/25 09:58:59;;;;;;;2.50;2.30;;;;;;;23.50;57.42;99643.16;4990750;28;20098;-75
2021/07/25 10:01:40;;;;;;;3.22;2.38;;;;;;;23.56;56.91;99626.91;5004412;28;20057;-79
2021/07/25 10:04:24;;;;;;;2.50;1.80;;;;;;;23.73;57.40;99640.34;5020963;28;20045;-78
2021/07/25 10:06:55;;;;;;;1.90;1.73;;;;;;;23.80;57.29;99626.50;5002115;28;20022;-79
2021/07/25 10:09:27;;;;;;;1.70;1.60;;;;;;;24.01;57.00;99644.78;5000747;28;20068;-78
2021/07/25 10:11:54;;;;;;;1.58;1.48;;;;;;;24.17;56.62;99641.81;5020244;28;20026;-77
2021/07/25 10:14:22;;;;;;;2.10;2.00;;;;;;;24.13;55.91;99635.38;5014485;28;20104;-77
2021/07/25 10:16:52;;;;;;;1.50;1.45;;;;;;;24.09;56.00;99640.09;5032838;28;20022;-79
2021/07/25 10:19:24;;;;;;;0.85;0.85;;;;;;;24.08;55.81;99639.31;5028874;28;20037;-78
2021/07/25 10:21:52;;;;;;;1.00;1.00;;;;;;;23.96;55.52;99633.94;5017649;28;20017;-79
2021/07/25 10:24:21;;;;;;;0.85;0.80;;;;;;;23.86;55.47;99638.97;5010711;28;20041;-79
2021/07/25 10:26:52;;;;;;;1.40;1.30;;;;;;;23.77;55.99;99629.22;5013720;28;20028;-79
2021/07/25 10:29:28;;;;;;;;;;;;;;;;;;;;;
2021/07/25 10:31:54;;;;;;;1.20;1.17;;;;;;;23.95;56.16;99632.34;5010520;28;20104;-79
2021/07/25 10:34:21;;;;;;;0.60;0.60;;;;;;;24.22;55.38;99644.28;5025980;28;20033;-79
2021/07/25 10:36:49;;;;;;;0.63;0.63;;;;;;;24.33;54.86;99641.66;5003869;28;20049;-81
2021/07/25 10:39:20;;;;;;;0.50;0.50;;;;;;;24.27;54.53;99630.00;5017847;28;20068;-79
2021/07/25 10:41:47;;;;;;;0.47;0.47;;;;;;;24.17;54.64;99620.28;5029632;28;20014;-79
2021/07/25 10:44:18;;;;;;;0.38;0.38;;;;;;;24.13;54.53;99630.59;5013246;28;20010;-77
2021/07/25 10:46:46;;;;;;;0.20;0.20;;;;;;;24.22;54.37;99633.94;5012305;28;20045;-79
2021/07/25 10:49:12;;;;;;;1.10;0.60;;;;;;;24.24;54.06;99625.16;5014559;28;20112;-78
2021/07/25 10:52:04;;;;;;;0.40;0.40;;;;;;;24.36;53.85;99638.09;5022981;28;20021;-76
2021/07/25 10:54:31;;;;;;;0.50;0.50;;;;;;;24.31;53.85;99635.63;5027704;28;20041;-78
2021/07/25 10:57:07;;;;;;;0.40;0.40;;;;;;;24.36;53.89;99640.88;5022073;28;20026;-79
2021/07/25 10:59:42;;;;;;;0.60;0.60;;;;;;;24.41;53.50;99634.94;5006376;28;20538;-79
2021/07/25 11:02:33;;;;;;;0.80;0.80;;;;;;;24.56;53.68;99636.75;5011356;28;20029;-78
2021/07/25 11:05:35;;;;;;;0.52;0.52;;;;;;;24.65;53.43;99607.72;5026048;28;20511;-80
2021/07/25 11:08:07;;;;;;;0.60;0.60;;;;;;;25.05;53.58;99634.94;5009501;28;20496;-78
2021/07/25 11:11:01;;;;;;;2.50;0.50;;;;;;;25.39;53.36;99642.47;5004758;28;20554;-79
2021/07/25 11:13:40;;;;;;;0.77;0.60;;;;;;;25.51;52.81;99645.00;5009295;28;20068;-79
2021/07/25 11:16:27;;;;;;;1.00;1.00;;;;;;;25.59;52.14;99641.03;5038207;28;20021;-76
2021/07/25 11:19:11;;;;;;;1.77;0.88;;;;;;;25.26;51.39;99634.34;5038360;28;20025;-80
2021/07/25 11:21:40;;;;;;;1.33;1.33;;;;;;;25.10;51.20;99644.97;5029921;28;20038;-81
2021/07/25 11:24:25;;;;;;;1.58;0.93;;;;;;;24.99;51.77;99644.06;5016906;28;20037;-79
2021/07/25 11:27:02;;;;;;;0.82;0.82;;;;;;;24.68;52.72;99637.72;5038881;28;20043;-81
2021/07/25 11:29:46;;;;;;;;;;;;;;;;;;;;;
2021/07/25 11:32:47;;;;;;;;;;;;;;;;;;;;;
2021/07/25 11:41:51;;;;;;;1.70;1.35;;;;;;;23.59;54.15;99640.13;4953497;28;20061;-75
2021/07/25 11:44:30;;;;;;;1.60;1.50;;;;;;;23.57;54.30;99642.44;4974383;28;20026;-71
2021/07/25 11:46:57;;;;;;;1.92;1.83;;;;;;;23.56;54.46;99638.06;4975383;28;20548;-76
2021/07/25 11:49:26;;;;;;;1.80;1.73;;;;;;;23.74;54.78;99658.69;5028427;28;20132;-74
2021/07/25 11:51:52;;;;;;;1.02;1.02;;;;;;;23.86;54.66;99655.75;5021541;28;20387;-75
2021/07/25 11:54:23;;;;;;;2.47;2.38;;;;;;;23.95;54.45;99657.47;5024967;28;20021;-75
2021/07/25 11:57:12;;;;;;;1.98;1.88;;;;;;;24.05;54.37;99659.63;5034122;28;20053;-75
2021/07/25 11:59:49;;;;;;;2.28;2.17;;;;;;;24.02;53.37;99663.97;5041262;28;20132;-74
2021/07/25 12:02:27;;;;;;;1.85;1.75;;;;;;;23.92;53.73;99652.59;5031667;28;20033;-76
2021/07/25 12:04:55;;;;;;;1.27;1.27;;;;;;;23.80;54.16;99667.56;5028620;28;20041;-74
2021/07/25 12:07:21;;;;;;;2.13;1.98;;;;;;;23.70;53.50;99669.00;5024370;28;20079;-76
2021/07/25 12:09:52;;;;;;;2.55;2.45;;;;;;;23.55;53.94;99661.56;5026407;28;20022;-75
2021/07/25 12:12:18;;;;;;;1.80;1.70;;;;;;;23.44;54.14;99672.56;5033345;28;20064;-75
2021/07/25 12:14:46;;;;;;;1.27;1.27;;;;;;;23.28;54.61;99669.88;5019442;28;20032;-76
2021/07/25 12:17:12;;;;;;;2.15;2.03;;;;;;;23.18;54.93;99663.72;5033259;28;20045;-75
2021/07/25 12:19:43;;;;;;;2.92;2.72;;;;;;;23.14;55.05;99671.22;5013872;28;20488;-75
2021/07/25 12:22:17;;;;;;;2.80;2.70;;;;;;;23.07;55.37;99665.47;5036412;28;20033;-76
2021/07/25 12:24:46;;;;;;;2.80;2.60;;;;;;;23.12;55.29;99662.41;5026062;28;20076;-75
2021/07/25 12:27:38;;;;;;;1.88;1.77;;;;;;;23.39;55.42;99664.47;5024799;28;20270;-74
2021/07/25 12:30:46;;;;;;;3.15;2.85;;;;;;;23.64;54.98;99664.91;5017456;28;20431;-73
2021/07/25 12:33:22;;;;;;;1.70;1.70;;;;;;;23.91;55.25;99662.97;5013124;28;20124;-74
2021/07/25 12:36:00;;;;;;;;;;;;;;;;;;;;;
2021/07/25 12:38:41;;;;;;;1.50;1.40;;;;;;;24.41;53.73;99662.91;5024111;28;20125;-73
2021/07/25 12:41:15;;;;;;;1.63;1.52;;;;;;;24.58;53.66;99673.50;5026216;28;20029;-73
2021/07/25 12:43:58;;;;;;;1.30;1.30;;;;;;;24.68;53.31;99676.88;5011907;28;20036;-74
2021/07/25 12:46:33;;;;;;;1.75;1.65;;;;;;;24.47;53.01;99666.97;5012036;28;20380;-73
2021/07/25 12:49:21;;;;;;;1.60;1.50;;;;;;;24.32;52.76;99659.59;5026952;28;20057;-74
2021/07/25 12:52:10;;;;;;;1.50;1.40;;;;;;;24.13;52.58;99671.69;5028698;28;20040;-73
2021/07/25 12:54:35;;;;;;;2.75;1.67;;;;;;;23.94;52.89;99672.59;5027798;28;20025;-72
2021/07/25 12:57:00;;;;;;;5.30;1.75;;;;;;;23.84;53.39;99674.00;5008560;28;20534;-72
2021/07/25 12:59:26;;;;;;;2.15;2.05;;;;;;;23.75;53.90;99671.47;4993097;28;20479;-73
2021/07/25 13:04:24;;;;;;;1.80;1.70;;;;;;;24.15;54.36;99678.50;5036986;28;20044;-72
2021/07/25 13:07:00;;;;;;;1.77;1.67;;;;;;;24.45;53.62;99686.09;5005588;28;20037;-79
2021/07/25 13:09:26;;;;;;;2.15;2.00;;;;;;;24.55;53.42;99668.69;5004887;28;20029;-74
2021/07/25 13:11:56;;;;;;;1.90;1.80;;;;;;;24.70;52.82;99683.66;5003048;28;20041;-72
2021/07/25 13:14:30;;;;;;;1.15;1.15;;;;;;;24.65;53.20;99666.41;5017776;28;20114;-73
2021/07/25 13:16:57;;;;;;;1.65;1.55;;;;;;;24.56;52.75;99661.91;5033768;28;20021;-73
2021/07/25 13:19:26;;;;;;;1.65;1.55;;;;;;;24.53;53.24;99676.66;5004433;28;20495;-72
2021/07/25 13:21:53;;;;;;;1.50;1.50;;;;;;;24.42;52.88;99670.09;5001375;28;20034;-72
2021/07/25 13:24:19;;;;;;;2.10;2.00;;;;;;;24.26;52.92;99669.47;5039512;28;20074;-72
2021/07/25 13:26:45;;;;;;;5.57;1.75;;;;;;;24.06;53.12;99664.00;5032438;28;20098;-72
2021/07/25 13:29:13;;;;;;;2.03;1.92;;;;;;;23.88;53.58;99681.28;5020618;28;20041;-74
2021/07/25 13:31:39;;;;;;;2.53;2.33;;;;;;;23.63;53.79;99669.69;5014480;28;20083;-72
2021/07/25 13:34:07;;;;;;;2.78;2.67;;;;;;;23.47;53.36;99678.19;5034455;28;20111;-72
2021/07/25 13:36:33;;;;;;;4.15;3.05;;;;;;;23.31;53.95;99680.28;5029171;28;20029;-73
2021/07/25 13:39:01;;;;;;;3.10;3.00;;;;;;;23.17;54.76;99670.50;4996397;28;20032;-71
2021/07/25 13:41:27;;;;;;;3.10;3.00;;;;;;;23.13;55.47;99672.41;5000588;28;20025;-73
2021/07/25 13:43:59;;;;;;;3.30;3.10;;;;;;;23.35;55.52;99670.00;5015498;28;20144;-73
2021/07/25 13:46:30;;;;;;;3.35;3.15;;;;;;;23.92;55.81;99670.19;5020696;28;20028;-73
2021/07/25 13:48:56;;;;;;;2.67;2.58;;;;;;;24.58;54.38;99679.09;5024029;28;20029;-73
2021/07/25 13:51:22;;;;;;;3.35;3.25;;;;;;;25.01;53.83;99689.22;5015399;28;20835;-72
2021/07/25 13:53:48;;;;;;;2.67;2.58;;;;;;;25.10;52.59;99686.91;5033563;28;20087;-72
2021/07/25 13:56:16;;;;;;;2.72;2.53;;;;;;;25.05;51.95;99690.06;4994245;28;20036;-72
2021/07/25 13:58:43;;;;;;;2.70;2.60;;;;;;;25.00;52.26;99701.56;5011475;28;20038;-72
2021/07/25 14:01:08;;;;;;;2.55;2.45;;;;;;;24.86;51.72;99689.03;5011407;28;20025;-71
2021/07/25 14:03:34;;;;;;;2.13;2.03;;;;;;;24.76;52.25;99686.13;5012685;28;20056;-71
2021/07/25 14:06:00;;;;;;;3.67;2.83;;;;;;;24.69;52.47;99692.44;5007973;28;20025;-73
2021/07/25 14:08:26;;;;;;;3.85;2.50;;;;;;;24.55;52.17;99679.06;5011775;28;20034;-71
2021/07/25 14:10:51;;;;;;;3.25;3.05;;;;;;;24.65;52.50;99695.19;5018015;28;20033;-72
2021/07/25 14:13:17;;;;;;;3.92;3.63;;;;;;;24.67;52.49;99686.41;5007067;28;20095;-73
2021/07/25 14:15:43;;;;;;;2.65;2.55;;;;;;;24.80;52.34;99690.56;5019573;28;20068;-72
2021/07/25 14:18:09;;;;;;;3.10;2.83;;;;;;;24.89;52.26;99693.88;4998900;28;20029;-72
2021/07/25 14:20:36;;;;;;;2.65;2.45;;;;;;;24.95;52.03;99691.53;5013602;28;20391;-73
2021/07/25 14:23:03;;;;;;;1.75;1.65;;;;;;;25.06;52.12;99702.88;5018752;28;20095;-72
2021/07/25 14:26:08;;;;;;;3.03;2.92;;;;;;;25.06;52.03;99697.28;5021708;28;20020;-74
2021/07/25 14:28:33;;;;;;;2.88;2.78;;;;;;;24.90;51.91;99698.28;5024873;28;20132;-72
2021/07/25 14:30:59;;;;;;;2.75;2.65;;;;;;;24.88;51.58;99703.47;5035211;28;20053;-74
2021/07/25 14:33:27;;;;;;;3.17;2.97;;;;;;;24.90;51.89;99697.50;5022897;28;20434;-74
2021/07/25 14:35:57;;;;;;;2.42;2.33;;;;;;;24.89;52.19;99693.88;5007508;28;20038;-73
2021/07/25 14:38:30;;;;;;;2.47;2.38;;;;;;;25.01;51.99;99703.19;5040407;28;20042;-73
2021/07/25 14:40:56;;;;;;;2.33;2.22;;;;;;;25.15;51.40;99700.56;5010766;28;20104;-72
2021/07/25 14:43:21;;;;;;;2.97;2.78;;;;;;;25.33;51.42;99694.38;4985125;28;20060;-73
2021/07/25 14:45:47;;;;;;;2.90;2.80;;;;;;;25.63;51.02;99690.66;5012604;28;20041;-74
2021/07/25 14:48:12;;;;;;;3.15;3.05;;;;;;;25.87;50.68;99695.66;5021963;28;20036;-73
2021/07/25 14:50:37;;;;;;;3.17;3.03;;;;;;;26.12;51.00;99695.91;5038365;28;20117;-74
2021/07/25 14:53:04;;;;;;;3.63;3.42;;;;;;;26.25;49.56;99695.56;4998795;28;20089;-75
2021/07/25 14:55:29;;;;;;;2.10;2.00;;;;;;;26.40;49.70;99702.06;5020549;28;20156;-74
2021/07/25 14:57:55;;;;;;;2.53;2.42;;;;;;;26.57;49.13;99689.34;4999382;28;20049;-73
2021/07/25 15:00:33;;;;;;;2.13;2.03;;;;;;;26.76;49.26;99696.66;5032380;28;20038;-79
2021/07/25 15:02:58;;;;;;;1.75;1.75;;;;;;;26.85;48.86;99691.47;5034085;28;20041;-75
2021/07/25 15:05:24;;;;;;;2.75;2.65;;;;;;;26.93;48.77;99698.75;5016312;28;20081;-75
2021/07/25 15:07:51;;;;;;;2.15;2.05;;;;;;;27.03;48.44;99696.34;5034386;28;20541;-72